Terminal Aerodrome Forecast
Issued by NWS Upton, NY

Home | Current Version | Previous Version | Text Only | Print | Product List | Glossary On
Versions: 1 2 3 4 5 6 7 8 9 10 11 12 13 14 15 16 17 18 19 20 21 22 23 24 25 26 27 28 29 30 31 32 33
000
FTUS41 KOKX 261122
TAFBDR
TAF
KBDR 261122Z 2612/2712 30009KT P6SM -SHRA OVC015
     FM261400 29009KT P6SM VCSH OVC010
     FM261600 28008KT P6SM VCSH BKN035
     FM261800 30007KT P6SM BKN035
     FM262100 32007KT P6SM BKN035
     FM270400 31006KT P6SM SCT050
     FM271000 33006KT P6SM SCT050=

USA.gov is the U.S. government's official web portal to all federal, state and local government web resources and services.